Time;durP1;ratioP1;P1;durP2;ratioP2;P2;SDS_P1;SDS_P2;PMS_P1;PMS_P2;Temp;Humidity;BMP_temperature;BMP_pressure;BME280_temperature;BME280_humidity;BME280_pressure;Samples;Min_cycle;Max_cycle;Signal;HPM_P1;HPM_P2
2021/12/13 00:00:28;;;;;;;14.58;10.50;;;1.60;99.90;;;;;;1932259;73;21191;-89
2021/12/13 00:03:27;;;;;;;17.35;11.90;;;1.60;99.90;;;;;;1929119;73;21098;-89
2021/12/13 00:06:21;;;;;;;15.72;11.78;;;1.50;99.90;;;;;;1917921;75;21079;-90
2021/12/13 00:09:16;;;;;;;14.90;10.63;;;1.50;99.90;;;;;;1927473;73;21668;-90
2021/12/13 00:12:10;;;;;;;15.98;10.93;;;1.50;99.90;;;;;;1921677;73;21066;-90
2021/12/13 00:15:04;;;;;;;16.12;11.22;;;1.40;99.90;;;;;;1917611;75;21094;-90
2021/12/13 00:17:56;;;;;;;16.30;11.88;;;1.40;99.90;;;;;;1917749;75;21135;-90
2021/12/13 00:20:52;;;;;;;15.93;11.30;;;1.30;99.90;;;;;;1918474;73;21043;-92
2021/12/13 00:23:50;;;;;;;15.83;11.38;;;1.20;99.90;;;;;;1919506;73;21160;-91
2021/12/13 00:26:45;;;;;;;16.75;11.30;;;1.20;99.90;;;;;;1917838;73;21131;-89
2021/12/13 00:32:22;;;;;;;16.42;11.60;;;1.10;99.90;;;;;;1947769;72;22186;-90
2021/12/13 00:35:17;;;;;;;18.17;11.10;;;1.10;99.90;;;;;;1837719;77;21112;-89
2021/12/13 00:38:11;;;;;;;16.67;11.33;;;1.10;99.90;;;;;;1849505;77;21058;-90
2021/12/13 00:41:06;;;;;;;15.20;11.10;;;1.10;99.90;;;;;;1849492;77;21489;-88
2021/12/13 00:48:01;;;;;;;14.78;11.20;;;1.00;99.90;;;;;;1991669;71;22302;-92
2021/12/13 00:50:56;;;;;;;18.05;11.43;;;0.90;99.90;;;;;;1953237;72;21140;-90
2021/12/13 00:53:50;;;;;;;16.80;11.28;;;0.80;99.90;;;;;;2047429;69;21111;-90
2021/12/13 00:57:15;;;;;;;17.15;11.25;;;0.90;99.90;;;;;;2036905;69;21077;-90
2021/12/13 01:03:10;;;;;;;14.30;10.08;;;0.80;99.90;;;;;;1947924;72;22732;-90
2021/12/13 01:06:37;;;;;;;17.82;11.15;;;0.70;99.90;;;;;;1830106;77;21077;-89
2021/12/13 01:10:23;;;;;;;15.28;10.95;;;0.80;99.90;;;;;;1825307;77;21161;-90
2021/12/13 01:16:16;;;;;;;16.50;11.05;;;0.70;99.90;;;;;;1947049;72;22140;-90
2021/12/13 01:19:27;;;;;;;13.95;10.40;;;0.80;99.90;;;;;;1905714;75;21155;-90
2021/12/13 01:22:35;;;;;;;16.02;10.95;;;0.70;99.90;;;;;;1925243;74;21051;-89
2021/12/13 01:25:45;;;;;;;15.68;10.15;;;0.70;99.90;;;;;;1905474;75;21133;-92
2021/12/13 01:28:57;;;;;;;15.13;10.80;;;0.70;99.90;;;;;;1909215;74;21046;-90
2021/12/13 01:31:52;;;;;;;16.10;10.85;;;0.70;99.90;;;;;;1902902;74;21056;-91
2021/12/13 01:37:25;;;;;;;17.92;10.93;;;0.70;99.90;;;;;;1946740;72;22282;-91
2021/12/13 01:43:04;;;;;;;15.75;11.43;;;0.70;99.90;;;;;;1960755;72;20255;-90
2021/12/13 01:45:57;;;;;;;17.45;11.03;;;0.60;99.90;;;;;;1919388;74;21578;-89
2021/12/13 01:48:50;;;;;;;16.20;10.90;;;0.60;99.90;;;;;;1914065;74;21197;-90
2021/12/13 01:51:44;;;;;;;16.30;11.80;;;0.60;99.90;;;;;;1915383;74;21100;-90
2021/12/13 01:57:41;;;;;;;15.00;11.10;;;0.60;99.90;;;;;;1946974;72;22184;-90
2021/12/13 02:03:10;;;;;;;17.10;10.45;;;0.50;99.90;;;;;;1933668;72;22276;-90
2021/12/13 02:06:02;;;;;;;17.98;11.68;;;0.50;99.90;;;;;;1890489;75;21208;-90
2021/12/13 02:11:33;;;;;;;16.30;10.15;;;0.50;99.90;;;;;;1909271;72;22180;-90
2021/12/13 02:17:10;;;;;;;14.33;9.90;;;0.60;99.90;;;;;;1955305;72;22253;-90
2021/12/13 02:20:06;;;;;;;14.50;10.23;;;0.70;99.90;;;;;;1920427;73;21137;-90
2021/12/13 02:22:58;;;;;;;16.30;10.48;;;0.70;99.90;;;;;;1917391;73;21178;-90
2021/12/13 02:25:55;;;;;;;15.03;9.73;;;0.70;99.90;;;;;;1917753;75;21128;-90
2021/12/13 02:29:08;;;;;;;14.95;9.83;;;0.60;99.90;;;;;;1917823;75;21133;-90
2021/12/13 02:32:02;;;;;;;16.65;10.32;;;0.60;99.90;;;;;;1919244;73;21055;-90
2021/12/13 02:34:54;;;;;;;13.65;9.90;;;0.50;99.90;;;;;;1934994;73;21067;-89
2021/12/13 02:37:46;;;;;;;16.05;11.05;;;0.50;99.90;;;;;;1917677;75;21095;-91
2021/12/13 02:40:39;;;;;;;17.12;10.53;;;0.40;99.90;;;;;;1941700;73;21438;-90
2021/12/13 02:43:35;;;;;;;15.10;10.58;;;0.40;99.90;;;;;;1921874;73;21227;-90
2021/12/13 02:46:27;;;;;;;18.25;10.70;;;0.30;99.90;;;;;;1924304;73;21121;-91
2021/12/13 02:49:19;;;;;;;15.93;10.60;;;0.30;99.90;;;;;;1917748;73;21157;-90
2021/12/13 02:52:14;;;;;;;15.30;9.83;;;0.30;99.90;;;;;;1917787;75;21605;-91
2021/12/13 02:55:08;;;;;;;13.78;8.98;;;0.40;99.90;;;;;;1917764;75;21120;-90
2021/12/13 02:58:03;;;;;;;13.40;9.58;;;0.40;99.90;;;;;;1926292;73;21063;-90
2021/12/13 03:00:58;;;;;;;16.12;10.23;;;0.30;99.90;;;;;;1941064;73;21109;-90
2021/12/13 03:03:53;;;;;;;14.78;9.93;;;0.40;99.90;;;;;;1931146;73;21105;-90
2021/12/13 03:09:54;;;;;;;14.40;9.75;;;0.30;99.90;;;;;;1954977;72;22123;-90
2021/12/13 03:12:45;;;;;;;13.48;9.33;;;0.30;99.90;;;;;;1897675;75;21055;-89
2021/12/13 03:15:38;;;;;;;13.25;9.53;;;0.20;99.90;;;;;;1898200;75;21134;-90
2021/12/13 03:18:41;;;;;;;14.75;9.68;;;0.30;99.90;;;;;;1888143;75;21167;-89
2021/12/13 03:22:38;;;;;;;14.07;10.03;;;0.30;99.90;;;;;;1885154;76;21132;-89
2021/12/13 03:25:35;;;;;;;14.95;9.65;;;0.30;99.90;;;;;;1907090;75;21088;-89
2021/12/13 03:28:36;;;;;;;15.48;9.95;;;0.20;99.90;;;;;;1878755;76;21184;-90
2021/12/13 03:31:31;;;;;;;13.05;9.70;;;0.20;99.90;;;;;;1897075;75;21110;-90
2021/12/13 03:34:25;;;;;;;13.72;9.33;;;0.20;99.90;;;;;;1895754;75;21048;-89
2021/12/13 03:37:20;;;;;;;13.70;9.20;;;0.20;99.90;;;;;;1902386;75;21175;-89
2021/12/13 03:40:15;;;;;;;14.83;9.83;;;0.20;99.90;;;;;;1900978;75;21096;-88
2021/12/13 03:43:10;;;;;;;12.88;8.80;;;0.20;99.90;;;;;;1902346;75;21156;-90
2021/12/13 03:46:04;;;;;;;13.98;9.73;;;0.20;99.90;;;;;;1890663;75;21111;-90
2021/12/13 03:48:57;;;;;;;11.83;9.18;;;0.20;99.90;;;;;;1884882;76;21079;-90
2021/12/13 03:51:51;;;;;;;13.90;9.33;;;0.30;99.90;;;;;;1887070;75;21126;-89
2021/12/13 03:54:44;;;;;;;13.90;9.78;;;0.30;99.90;;;;;;1907223;75;21055;-89
2021/12/13 03:57:39;;;;;;;12.65;9.10;;;0.30;99.90;;;;;;1897179;75;21095;-89
2021/12/13 04:00:52;;;;;;;13.98;9.33;;;0.20;99.90;;;;;;1886001;75;21141;-89
2021/12/13 04:04:05;;;;;;;13.75;8.85;;;0.30;99.90;;;;;;1904020;75;21082;-89
2021/12/13 04:07:00;;;;;;;12.93;9.20;;;0.20;99.90;;;;;;1884891;76;21151;-89
2021/12/13 04:12:43;;;;;;;11.45;8.33;;;0.40;99.90;;;;;;1952939;72;22273;-90
2021/12/13 04:15:34;;;;;;;10.95;8.00;;;0.40;99.90;;;;;;1917043;74;21051;-90
2021/12/13 04:18:41;;;;;;;11.80;8.30;;;0.40;99.90;;;;;;1892056;75;21043;-90
2021/12/13 04:21:27;;;;;;;11.15;7.60;;;0.50;99.90;;;;;;1900670;75;21106;-90
2021/12/13 04:24:39;;;;;;;11.78;8.00;;;0.50;99.90;;;;;;1893133;75;21050;-89
2021/12/13 04:27:34;;;;;;;12.98;7.62;;;0.60;99.90;;;;;;1903422;74;21054;-89
2021/12/13 04:30:28;;;;;;;9.80;7.00;;;0.60;99.90;;;;;;1893088;75;21115;-89
2021/12/13 04:33:24;;;;;;;10.30;7.03;;;0.60;99.90;;;;;;1905406;75;21121;-89
2021/12/13 04:36:18;;;;;;;9.53;7.25;;;0.70;99.90;;;;;;1901679;75;21098;-90
2021/12/13 04:41:54;;;;;;;11.43;7.72;;;0.80;99.90;;;;;;1938161;72;22372;-90
2021/12/13 04:44:50;;;;;;;9.58;6.78;;;0.90;99.90;;;;;;1919338;74;21078;-90
2021/12/13 04:51:01;;;;;;;11.20;7.85;;;0.80;99.90;;;;;;1991293;71;22210;-90
2021/12/13 04:53:52;;;;;;;11.33;7.95;;;0.90;99.90;;;;;;1976125;72;21629;-90
2021/12/13 04:56:46;;;;;;;13.45;7.97;;;0.90;99.90;;;;;;2043135;69;21026;-89
2021/12/13 04:59:37;;;;;;;12.23;8.00;;;0.80;99.90;;;;;;2044509;69;21701;-89
2021/12/13 05:02:51;;;;;;;12.68;8.30;;;0.70;99.90;;;;;;2038431;69;21034;-88
2021/12/13 05:05:43;;;;;;;13.22;8.48;;;0.60;99.90;;;;;;2033795;69;21067;-90
2021/12/13 05:08:35;;;;;;;11.60;8.80;;;0.60;99.90;;;;;;2034222;70;21026;-89
2021/12/13 05:11:31;;;;;;;13.93;8.83;;;0.60;99.90;;;;;;2058113;69;21051;-89
2021/12/13 05:14:32;;;;;;;11.80;8.70;;;0.50;99.90;;;;;;2034723;69;21080;-90
2021/12/13 05:17:26;;;;;;;11.90;8.38;;;0.40;99.90;;;;;;2054030;69;21182;-90
2021/12/13 05:20:21;;;;;;;14.70;9.00;;;0.40;99.90;;;;;;2033850;70;21477;-91
2021/12/13 05:23:15;;;;;;;14.43;9.10;;;0.50;99.90;;;;;;2042030;69;21095;-90
2021/12/13 05:26:09;;;;;;;13.00;9.08;;;0.30;99.90;;;;;;2034839;70;21113;-90
2021/12/13 05:29:02;;;;;;;12.43;9.13;;;0.30;99.90;;;;;;2034540;70;21141;-90
2021/12/13 05:31:58;;;;;;;16.10;9.45;;;0.20;99.90;;;;;;2033878;69;21118;-90
2021/12/13 05:34:53;;;;;;;13.95;9.10;;;0.20;99.90;;;;;;2041658;69;21038;-90
2021/12/13 05:37:49;;;;;;;13.25;9.25;;;0.10;99.90;;;;;;2035500;69;21046;-90
2021/12/13 05:41:02;;;;;;;13.88;8.95;;;0.10;99.90;;;;;;2049484;69;21026;-91
2021/12/13 05:44:13;;;;;;;12.73;9.28;;;0.10;99.90;;;;;;2035375;69;21015;-90
2021/12/13 05:47:08;;;;;;;12.50;9.05;;;0.20;99.90;;;;;;2046818;69;21042;-90
2021/12/13 05:50:00;;;;;;;14.58;9.68;;;0.30;99.90;;;;;;2040703;69;21059;-90
2021/12/13 05:52:54;;;;;;;16.05;9.60;;;0.20;99.90;;;;;;2053783;69;21086;-89
2021/12/13 05:55:53;;;;;;;12.88;9.63;;;0.20;99.90;;;;;;2042699;69;21046;-90
2021/12/13 05:58:48;;;;;;;12.50;9.28;;;0.20;99.90;;;;;;2033973;70;21103;-89
2021/12/13 06:01:44;;;;;;;13.93;10.18;;;0.30;99.90;;;;;;2033973;70;21186;-90
2021/12/13 06:04:44;;;;;;;13.90;8.75;;;0.20;99.90;;;;;;2031991;70;21027;-90
2021/12/13 06:07:39;;;;;;;14.40;10.13;;;0.30;99.90;;;;;;2035085;70;21023;-90
2021/12/13 06:13:14;;;;;;;12.18;9.63;;;0.10;99.90;;;;;;1955901;72;22202;-91
2021/12/13 06:16:05;;;;;;;16.73;10.18;;;0.20;99.90;;;;;;1887479;75;21060;-90
2021/12/13 06:21:50;;;;;;;14.05;9.28;;;0.00;99.90;;;;;;1951339;72;22282;-89
2021/12/13 06:27:33;;;;;;;14.85;10.08;;;0.10;99.90;;;;;;1968818;72;22170;-90
2021/12/13 06:30:27;;;;;;;14.90;9.80;;;0.10;99.90;;;;;;1905517;75;21114;-89
2021/12/13 06:33:18;;;;;;;13.93;9.78;;;0.10;99.90;;;;;;1905880;75;21117;-90
2021/12/13 06:38:57;;;;;;;15.43;9.68;;;0.00;99.90;;;;;;1938339;72;22119;-91
2021/12/13 06:41:52;;;;;;;14.75;9.30;;;0.10;99.90;;;;;;1883757;74;21147;-90
2021/12/13 06:44:46;;;;;;;15.72;9.90;;;0.00;99.90;;;;;;1881469;75;21087;-90
2021/12/13 06:47:45;;;;;;;14.55;9.70;;;0.00;99.90;;;;;;1878176;75;21132;-90
2021/12/13 06:50:55;;;;;;;12.95;9.63;;;-0.10;99.90;;;;;;1884163;75;21047;-92
2021/12/13 06:54:04;;;;;;;13.62;9.15;;;0.00;99.90;;;;;;1848072;77;21095;-90
2021/12/13 06:56:59;;;;;;;13.97;9.73;;;-0.10;99.90;;;;;;1901093;75;21059;-90
2021/12/13 06:59:55;;;;;;;13.45;9.80;;;-0.10;99.90;;;;;;1896510;75;21116;-90
2021/12/13 07:02:50;;;;;;;15.68;10.50;;;0.00;99.90;;;;;;1890657;75;21051;-90
2021/12/13 07:08:24;;;;;;;13.20;9.70;;;-0.10;99.90;;;;;;1940784;72;22280;-90
2021/12/13 07:14:04;;;;;;;17.70;9.50;;;-0.10;99.90;;;;;;1950876;72;22333;-91
2021/12/13 07:19:28;;;;;;;14.33;9.45;;;-0.10;99.90;;;;;;1926297;72;26573;-78
2021/12/13 07:22:23;;;;;;;15.93;10.28;;;-0.10;99.90;;;;;;1899052;75;21059;-78
2021/12/13 07:25:16;;;;;;;15.23;9.98;;;-0.10;99.90;;;;;;1895531;75;21129;-79
2021/12/13 07:28:10;;;;;;;13.60;9.73;;;-0.10;99.90;;;;;;1893074;75;21105;-80
2021/12/13 07:31:22;;;;;;;15.60;9.65;;;-0.10;99.90;;;;;;1892936;75;21086;-80
2021/12/13 07:34:17;;;;;;;15.15;10.32;;;0.00;99.90;;;;;;1892048;75;21107;-80
2021/12/13 07:37:08;;;;;;;14.50;9.80;;;0.10;99.90;;;;;;1888592;75;21117;-77
2021/12/13 07:40:24;;;;;;;13.48;9.98;;;0.10;99.90;;;;;;1893388;75;21087;-78
2021/12/13 07:43:21;;;;;;;15.83;10.38;;;0.20;99.90;;;;;;1873083;76;21651;-77
2021/12/13 07:46:15;;;;;;;18.48;11.55;;;0.20;99.90;;;;;;1894818;75;21051;-79
2021/12/13 07:49:10;;;;;;;19.77;11.55;;;0.10;99.90;;;;;;1894120;75;21112;-78
2021/12/13 07:52:04;;;;;;;19.50;11.10;;;0.20;99.90;;;;;;1891261;75;21110;-78
2021/12/13 07:54:57;;;;;;;17.73;11.55;;;0.20;99.90;;;;;;1890049;75;21083;-78
2021/12/13 07:57:49;;;;;;;17.52;10.55;;;0.20;99.90;;;;;;1872922;76;21078;-78
2021/12/13 08:00:42;;;;;;;19.25;12.20;;;0.30;99.90;;;;;;1900044;75;21090;-80
2021/12/13 08:03:34;;;;;;;16.17;10.68;;;0.30;99.90;;;;;;1882507;75;21075;-80
2021/12/13 08:06:28;;;;;;;17.55;11.08;;;0.30;99.90;;;;;;1890830;75;21173;-78
2021/12/13 08:09:42;;;;;;;17.12;11.50;;;0.30;99.90;;;;;;1890582;75;21122;-78
2021/12/13 08:12:55;;;;;;;20.08;12.23;;;0.20;99.90;;;;;;1873230;76;21164;-78
2021/12/13 08:15:49;;;;;;;16.42;11.33;;;0.20;99.90;;;;;;1894741;75;21084;-77
2021/12/13 08:18:43;;;;;;;15.78;10.68;;;0.20;99.90;;;;;;1895719;75;21212;-78
2021/12/13 08:21:42;;;;;;;17.00;10.85;;;0.30;99.90;;;;;;1877316;76;21172;-78
2021/12/13 08:24:36;;;;;;;20.77;11.67;;;0.30;99.90;;;;;;1891041;75;21063;-79
2021/12/13 08:27:30;;;;;;;16.77;11.18;;;0.40;99.90;;;;;;1896558;74;21114;-78
2021/12/13 08:30:24;;;;;;;16.80;11.10;;;0.40;99.90;;;;;;1825861;78;21107;-78
2021/12/13 08:33:18;;;;;;;14.13;10.70;;;0.60;99.90;;;;;;1874357;76;21201;-77
2021/12/13 08:36:13;;;;;;;18.77;11.40;;;0.60;99.90;;;;;;1893343;75;21113;-79
2021/12/13 08:39:08;;;;;;;18.75;11.12;;;0.60;99.90;;;;;;1879723;75;21105;-79
2021/12/13 08:42:03;;;;;;;17.48;10.58;;;0.60;99.90;;;;;;1882746;75;21055;-78
2021/12/13 08:45:03;;;;;;;20.97;11.43;;;0.70;99.90;;;;;;1890644;74;21106;-77
2021/12/13 08:47:58;;;;;;;16.90;10.58;;;0.80;99.90;;;;;;1862071;76;21212;-78
2021/12/13 08:50:53;;;;;;;15.25;9.55;;;0.90;99.90;;;;;;1878127;74;21195;-77
2021/12/13 08:53:46;;;;;;;17.62;10.58;;;0.90;99.90;;;;;;1896574;75;21162;-78
2021/12/13 08:56:42;;;;;;;14.63;10.63;;;1.00;99.90;;;;;;1897838;75;21106;-77
2021/12/13 08:59:34;;;;;;;15.95;10.38;;;1.00;99.90;;;;;;1885483;74;21131;-77
2021/12/13 09:02:31;;;;;;;15.48;10.20;;;1.10;99.90;;;;;;1879205;76;21075;-77
2021/12/13 09:05:28;;;;;;;16.77;11.00;;;1.10;99.90;;;;;;1899852;75;21169;-79
2021/12/13 09:08:26;;;;;;;16.62;11.53;;;1.20;99.90;;;;;;1879930;75;21100;-78
2021/12/13 09:11:25;;;;;;;14.25;11.30;;;1.30;99.90;;;;;;1886241;75;22014;-77
2021/12/13 09:14:21;;;;;;;17.98;11.10;;;1.30;99.90;;;;;;1892670;75;21039;-80
2021/12/13 09:17:17;;;;;;;15.83;10.50;;;1.40;99.90;;;;;;1908291;75;21176;-79
2021/12/13 09:20:14;;;;;;;16.27;10.18;;;1.30;99.90;;;;;;1878316;76;21119;-81
2021/12/13 09:23:12;;;;;;;14.45;10.13;;;1.40;99.90;;;;;;1899098;75;21162;-79
2021/12/13 09:26:06;;;;;;;17.75;11.28;;;1.40;99.90;;;;;;1865817;76;21142;-80
2021/12/13 09:29:01;;;;;;;18.42;10.90;;;1.40;99.90;;;;;;1912817;75;21109;-79
2021/12/13 09:31:54;;;;;;;36.77;13.72;;;1.50;99.90;;;;;;1884614;75;21287;-79
2021/12/13 09:34:53;;;;;;;29.98;14.28;;;1.50;99.90;;;;;;1884878;75;21091;-80
2021/12/13 09:37:47;;;;;;;39.60;13.88;;;1.40;99.90;;;;;;1869560;75;21149;-79
2021/12/13 09:40:41;;;;;;;24.45;12.80;;;1.60;99.90;;;;;;1887397;75;21353;-79
2021/12/13 09:43:40;;;;;;;20.72;12.13;;;1.60;99.90;;;;;;1872097;77;21059;-79
2021/12/13 09:46:37;;;;;;;21.97;12.65;;;1.60;99.90;;;;;;1885003;75;21134;-79
2021/12/13 09:49:34;;;;;;;28.02;13.05;;;1.70;99.90;;;;;;1872212;77;21189;-80
2021/12/13 09:52:31;;;;;;;20.12;11.90;;;1.80;99.90;;;;;;1872198;77;21117;-80
2021/12/13 09:55:25;;;;;;;27.17;12.75;;;1.90;99.90;;;;;;1882744;76;21059;-79
2021/12/13 09:58:19;;;;;;;20.17;11.85;;;1.90;99.90;;;;;;1884970;75;21054;-80
2021/12/13 10:01:14;;;;;;;23.85;12.85;;;2.00;99.90;;;;;;1892092;75;21091;-80
2021/12/13 10:04:13;;;;;;;18.75;11.95;;;2.10;99.90;;;;;;1872375;77;21084;-79
2021/12/13 10:07:08;;;;;;;17.60;11.60;;;2.20;99.90;;;;;;1894903;75;21046;-80
2021/12/13 10:10:03;;;;;;;21.48;12.28;;;2.20;99.90;;;;;;1882374;75;21062;-80
2021/12/13 10:15:39;;;;;;;17.77;12.43;;;2.40;99.90;;;;;;1943247;72;22208;-80
2021/12/13 10:18:34;;;;;;;17.92;12.40;;;2.50;99.90;;;;;;1885019;75;21159;-79
2021/12/13 10:21:29;;;;;;;14.80;11.88;;;2.50;99.90;;;;;;1888021;75;21051;-80
2021/12/13 10:24:24;;;;;;;14.25;10.40;;;2.60;99.90;;;;;;1883548;75;21149;-80
2021/12/13 10:27:35;;;;;;;14.03;10.30;;;2.70;99.90;;;;;;1895418;75;21117;-80
2021/12/13 10:30:30;;;;;;;14.15;10.30;;;2.70;99.90;;;;;;1894513;75;21060;-81
2021/12/13 10:33:24;;;;;;;12.53;10.13;;;2.80;99.90;;;;;;1873703;75;21063;-80
2021/12/13 10:36:16;;;;;;;13.05;10.15;;;2.90;99.90;;;;;;1899675;74;21610;-80
2021/12/13 10:39:21;;;;;;;15.83;10.40;;;2.90;99.90;;;;;;1878532;75;21094;-80
2021/12/13 10:42:17;;;;;;;14.07;10.85;;;3.00;99.90;;;;;;1885256;76;21063;-80
2021/12/13 10:45:19;;;;;;;16.52;11.08;;;3.00;99.90;;;;;;1897634;75;21171;-80
2021/12/13 10:48:17;;;;;;;15.10;10.68;;;3.00;99.90;;;;;;1900384;75;21209;-79
2021/12/13 10:51:13;;;;;;;16.00;10.88;;;3.10;99.90;;;;;;1873236;76;21060;-81
2021/12/13 10:54:09;;;;;;;16.62;11.45;;;3.20;99.90;;;;;;1889328;75;21126;-80
2021/12/13 10:57:03;;;;;;;14.53;11.22;;;3.20;99.90;;;;;;1876760;75;21063;-80
2021/12/13 10:59:59;;;;;;;14.98;10.60;;;3.30;99.90;;;;;;1883627;75;21094;-80
2021/12/13 11:05:38;;;;;;;15.05;10.28;;;3.50;99.90;;;;;;1956212;72;22327;-80
2021/12/13 11:08:31;;;;;;;15.80;10.75;;;3.50;99.90;;;;;;1909041;74;21086;-80
2021/12/13 11:11:26;;;;;;;17.92;11.12;;;3.50;99.90;;;;;;1859309;76;21087;-79
2021/12/13 11:14:22;;;;;;;18.75;13.53;;;3.50;99.90;;;;;;1917426;75;21136;-80
2021/12/13 11:17:35;;;;;;;20.45;14.30;;;3.50;99.90;;;;;;1884544;75;21056;-79
2021/12/13 11:20:29;;;;;;;18.98;12.88;;;3.60;99.90;;;;;;1898544;75;21106;-80
2021/12/13 11:23:22;;;;;;;17.43;12.17;;;3.60;99.90;;;;;;1906381;75;21091;-79
2021/12/13 11:26:20;;;;;;;19.95;12.35;;;3.50;99.90;;;;;;1905918;75;21070;-79
2021/12/13 11:29:14;;;;;;;18.30;12.68;;;3.60;99.90;;;;;;1885598;75;21179;-80
2021/12/13 11:36:17;;;;;;;15.58;11.35;;;3.50;99.90;;;;;;1952431;72;22106;-79
2021/12/13 11:39:28;;;;;;;14.40;10.90;;;3.60;99.90;;;;;;1919938;73;21093;-79
2021/12/13 11:43:11;;;;;;;15.48;11.28;;;3.70;99.90;;;;;;1923421;73;21174;-79
2021/12/13 11:46:33;;;;;;;15.35;10.80;;;3.70;99.90;;;;;;1788665;74;21148;-80
2021/12/13 11:49:55;;;;;;;14.63;9.88;;;3.80;99.90;;;;;;1916383;73;21210;-79
2021/12/13 11:53:50;;;;;;;14.30;10.23;;;3.90;99.90;;;;;;1917173;75;21377;-79
2021/12/13 11:57:08;;;;;;;13.98;9.45;;;4.00;99.90;;;;;;1870261;73;21042;-79
2021/12/13 12:00:11;;;;;;;13.35;9.18;;;4.10;99.90;;;;;;1917109;73;21064;-79
2021/12/13 12:03:42;;;;;;;13.58;9.10;;;4.20;99.90;;;;;;1917675;75;21107;-80
2021/12/13 12:07:14;;;;;;;12.70;8.55;;;4.40;99.90;;;;;;1883117;75;21137;-80
2021/12/13 12:10:15;;;;;;;13.13;8.75;;;4.30;99.90;;;;;;1919024;73;21193;-81
2021/12/13 12:13:11;;;;;;;13.22;9.38;;;4.40;99.90;;;;;;1917720;73;21183;-80
2021/12/13 12:16:06;;;;;;;15.63;9.23;;;4.50;99.90;;;;;;1939389;73;21094;-80
2021/12/13 12:18:58;;;;;;;15.30;8.80;;;4.50;99.90;;;;;;1933000;73;21043;-80
2021/12/13 12:21:57;;;;;;;14.23;9.65;;;4.60;99.90;;;;;;1917554;75;21121;-80
2021/12/13 12:24:48;;;;;;;;;;;4.60;99.90;;;;;;1920470;73;21097;-80
2021/12/13 12:27:40;;;;;;;11.88;8.50;;;4.60;99.90;;;;;;1937230;73;20167;-81
2021/12/13 12:30:36;;;;;;;16.15;9.68;;;4.70;99.90;;;;;;1934602;73;21104;-81
2021/12/13 12:33:32;;;;;;;11.57;8.03;;;4.70;99.90;;;;;;1917451;73;21066;-80
2021/12/13 12:36:25;;;;;;;15.18;8.58;;;4.80;99.90;;;;;;1917608;74;21087;-80
2021/12/13 12:39:47;;;;;;;12.78;8.30;;;4.80;99.90;;;;;;1917359;75;21154;-81
2021/12/13 12:42:41;;;;;;;14.45;8.95;;;4.80;99.90;;;;;;1917473;75;21573;-80
2021/12/13 12:45:36;;;;;;;11.30;8.08;;;4.80;99.90;;;;;;1937766;73;21141;-81
2021/12/13 12:48:32;;;;;;;13.58;8.75;;;4.90;99.90;;;;;;1934488;73;21128;-82
2021/12/13 12:54:14;;;;;;;13.22;10.13;;;4.90;99.90;;;;;;1939682;72;22608;-81
2021/12/13 12:59:49;;;;;;;16.77;10.37;;;5.00;99.90;;;;;;1954142;72;22154;-81
2021/12/13 13:02:42;;;;;;;12.50;9.98;;;5.10;99.90;;;;;;1905725;74;21113;-80
2021/12/13 13:05:33;;;;;;;15.10;9.95;;;5.10;99.90;;;;;;1878265;75;21066;-82
2021/12/13 13:08:34;;;;;;;17.07;10.82;;;5.20;99.90;;;;;;1909126;75;21239;-80
2021/12/13 13:11:47;;;;;;;17.17;10.88;;;5.10;99.90;;;;;;1895158;75;21124;-81
2021/12/13 13:14:48;;;;;;;17.23;10.15;;;5.20;99.90;;;;;;1908480;75;21117;-81
2021/12/13 13:17:44;;;;;;;14.05;10.23;;;5.10;99.90;;;;;;1901933;75;21143;-81
2021/12/13 13:20:38;;;;;;;14.40;9.53;;;5.20;99.90;;;;;;1894480;75;21160;-81
2021/12/13 13:23:37;;;;;;;13.25;9.90;;;5.20;99.90;;;;;;1895459;75;21225;-81
2021/12/13 13:26:31;;;;;;;14.87;10.00;;;5.20;99.90;;;;;;1906748;75;21176;-81
2021/12/13 13:29:24;;;;;;;15.15;10.48;;;5.20;99.90;;;;;;1909803;75;21086;-81
2021/12/13 13:32:17;;;;;;;15.75;10.10;;;5.20;99.90;;;;;;1901241;75;21047;-81
2021/12/13 13:35:09;;;;;;;15.38;10.50;;;5.20;99.90;;;;;;1893817;75;21126;-81
2021/12/13 13:38:02;;;;;;;15.55;10.05;;;5.20;99.90;;;;;;1904378;75;21117;-82
2021/12/13 13:40:54;;;;;;;16.40;10.08;;;5.20;99.90;;;;;;1890090;75;21079;-83
2021/12/13 13:43:48;;;;;;;12.95;9.75;;;5.30;99.90;;;;;;1895488;75;21106;-81
2021/12/13 13:46:42;;;;;;;13.60;9.40;;;5.30;99.90;;;;;;1900274;75;21071;-81
2021/12/13 13:49:53;;;;;;;13.70;9.15;;;5.30;99.90;;;;;;1901487;75;21146;-81
2021/12/13 13:53:06;;;;;;;13.93;10.13;;;5.30;99.90;;;;;;1901406;75;21079;-81
2021/12/13 13:56:01;;;;;;;13.08;9.98;;;5.30;99.90;;;;;;1896220;75;21116;-81
2021/12/13 13:58:57;;;;;;;16.30;10.98;;;5.30;99.90;;;;;;1895514;75;21083;-81
2021/12/13 14:04:34;;;;;;;13.05;8.90;;;5.30;99.90;;;;;;1957026;72;22340;-82
2021/12/13 14:07:30;;;;;;;13.43;9.20;;;5.30;99.90;;;;;;1926702;73;21137;-82
2021/12/13 14:10:26;;;;;;;14.85;9.33;;;5.30;99.90;;;;;;1917535;75;21101;-81
2021/12/13 14:13:18;;;;;;;15.00;9.88;;;5.20;99.90;;;;;;1923247;73;21040;-82
2021/12/13 14:16:30;;;;;;;14.53;8.60;;;5.10;99.90;;;;;;1928636;73;21058;-81
2021/12/13 14:19:31;;;;;;;13.58;8.45;;;5.10;99.90;;;;;;1928699;73;21179;-82
2021/12/13 14:22:32;;;;;;;15.95;9.33;;;5.10;99.90;;;;;;1917327;75;21774;-81
2021/12/13 14:25:31;;;;;;;13.75;9.35;;;5.10;99.90;;;;;;1917476;75;21148;-82
2021/12/13 14:28:33;;;;;;;13.28;9.00;;;5.10;99.90;;;;;;1917509;75;21127;-81
2021/12/13 14:31:27;;;;;;;16.85;9.38;;;5.10;99.90;;;;;;1940051;73;21150;-81
2021/12/13 14:34:22;;;;;;;15.15;9.25;;;5.10;99.90;;;;;;1940335;73;21058;-81
2021/12/13 14:37:14;;;;;;;17.82;10.23;;;5.10;99.90;;;;;;1917511;75;21095;-82
2021/12/13 14:40:08;;;;;;;16.25;10.25;;;5.10;99.90;;;;;;1917691;75;21128;-81
2021/12/13 14:42:59;;;;;;;14.87;10.80;;;5.10;99.90;;;;;;1880689;76;21071;-81
2021/12/13 14:45:53;;;;;;;18.15;12.00;;;5.00;99.90;;;;;;1923737;73;21152;-81
2021/12/13 14:48:46;;;;;;;18.45;11.25;;;5.00;99.90;;;;;;1926638;73;21208;-81
2021/12/13 14:51:40;;;;;;;19.10;12.43;;;5.00;99.90;;;;;;1880775;76;21094;-81
2021/12/13 14:54:54;;;;;;;23.70;12.68;;;4.90;99.90;;;;;;1917606;75;21148;-81
2021/12/13 15:00:49;;;;;;;21.82;13.93;;;4.70;99.90;;;;;;1941228;72;22232;-82
2021/12/13 15:06:24;;;;;;;21.33;13.70;;;4.60;99.90;;;;;;1953576;72;22257;-81
2021/12/13 15:09:19;;;;;;;21.12;13.22;;;4.50;99.90;;;;;;1917341;75;21051;-81
2021/12/13 15:12:14;;;;;;;22.75;14.18;;;4.40;99.90;;;;;;1929225;73;21075;-81
2021/12/13 15:15:08;;;;;;;22.67;14.15;;;4.40;99.90;;;;;;1921001;73;21114;-82
2021/12/13 15:18:19;;;;;;;26.27;15.00;;;4.30;99.90;;;;;;1939599;73;21161;-82
2021/12/13 15:21:16;;;;;;;21.62;14.83;;;4.20;99.90;;;;;;1917349;74;21673;-81
2021/12/13 15:24:08;;;;;;;22.40;14.53;;;4.10;99.90;;;;;;1917359;75;21112;-81
2021/12/13 15:27:01;;;;;;;22.13;14.90;;;4.10;99.90;;;;;;1917247;75;21506;-81
2021/12/13 15:29:59;;;;;;;24.40;15.48;;;4.10;99.90;;;;;;1917208;75;21152;-81
2021/12/13 15:35:34;;;;;;;26.12;14.98;;;3.90;99.90;;;;;;1958078;72;22212;-82
2021/12/13 15:38:27;;;;;;;26.48;15.20;;;3.80;99.90;;;;;;1899751;75;21102;-81
2021/12/13 15:41:22;;;;;;;27.75;16.25;;;3.80;99.90;;;;;;1907205;75;21119;-83
2021/12/13 15:44:16;;;;;;;24.43;15.13;;;3.70;99.90;;;;;;1884519;75;21137;-83
2021/12/13 15:50:40;;;;;;;24.65;15.65;;;3.70;99.90;;;;;;1891992;75;21043;-81
2021/12/13 15:53:32;;;;;;;24.85;15.35;;;3.70;99.90;;;;;;1894788;75;21733;-81
2021/12/13 15:56:26;;;;;;;25.60;16.07;;;3.60;99.90;;;;;;1901724;75;21106;-82
2021/12/13 15:59:21;;;;;;;25.80;16.40;;;3.60;99.90;;;;;;1897127;75;21076;-82
2021/12/13 16:02:18;;;;;;;26.42;16.50;;;3.50;99.90;;;;;;1887039;75;21106;-83
2021/12/13 16:05:13;;;;;;;25.97;16.55;;;3.50;99.90;;;;;;1910396;75;21108;-84
2021/12/13 16:08:05;;;;;;;26.97;16.12;;;3.50;99.90;;;;;;1896145;75;21104;-82
2021/12/13 16:10:56;;;;;;;25.05;16.20;;;3.40;99.90;;;;;;1895143;75;21570;-82
2021/12/13 16:13:49;;;;;;;26.45;17.40;;;3.30;99.90;;;;;;1893533;75;21115;-82
2021/12/13 16:16:40;;;;;;;23.80;16.00;;;3.30;99.90;;;;;;1898039;75;21123;-82
2021/12/13 16:19:45;;;;;;;27.15;16.20;;;3.20;99.90;;;;;;1906458;75;21043;-82
2021/12/13 16:22:52;;;;;;;26.60;17.10;;;3.20;99.90;;;;;;1893739;75;21151;-82
2021/12/13 16:26:05;;;;;;;30.48;16.57;;;3.10;99.90;;;;;;1885006;75;21055;-81
2021/12/13 16:29:16;;;;;;;27.50;16.55;;;3.20;99.90;;;;;;1895513;75;21023;-82
2021/12/13 16:32:13;;;;;;;29.77;17.73;;;3.10;99.90;;;;;;1900179;75;21134;-81
2021/12/13 16:35:05;;;;;;;27.55;17.55;;;3.00;99.90;;;;;;1897463;75;21632;-83
2021/12/13 16:38:00;;;;;;;29.67;18.50;;;3.10;99.90;;;;;;1895352;75;21109;-82
2021/12/13 16:40:56;;;;;;;29.20;18.23;;;3.00;99.90;;;;;;1895281;75;21118;-83
2021/12/13 16:43:50;;;;;;;31.12;18.10;;;3.00;99.90;;;;;;1895980;75;21611;-82
2021/12/13 16:46:45;;;;;;;29.72;18.12;;;3.00;99.90;;;;;;1890038;75;21060;-82